Time;durP1;ratioP1;P1;durP2;ratioP2;P2;SDS_P1;SDS_P2;PMS_P1;PMS_P2;Temp;Humidity;BMP_temperature;BMP_pressure;BME280_temperature;BME280_humidity;BME280_pressure;Samples;Min_cycle;Max_cycle;Signal;HPM_P1;HPM_P2
2023/11/08 00:02:05;;;;;;;1.53;1.43;;;;;;;7.50;100.00;99291.31;6184307;23;20165;-78
2023/11/08 00:04:33;;;;;;;1.40;1.20;;;;;;;7.50;100.00;99279.84;6184733;23;20169;-79
2023/11/08 00:07:07;;;;;;;1.27;0.93;;;;;;;7.46;100.00;99279.44;6184421;23;20162;-78
2023/11/08 00:09:36;;;;;;;0.80;0.80;;;;;;;7.46;100.00;99279.44;6183925;23;20293;-78
2023/11/08 00:12:08;;;;;;;0.93;0.90;;;;;;;7.47;100.00;99280.22;6184242;23;20163;-77
2023/11/08 00:14:36;;;;;;;1.10;0.90;;;;;;;7.45;100.00;99282.31;6158676;23;20166;-77
2023/11/08 00:17:13;;;;;;;0.83;0.83;;;;;;;7.46;100.00;99283.94;6184106;23;20166;-78
2023/11/08 00:19:43;;;;;;;1.43;0.80;;;;;;;7.45;100.00;99285.78;6159714;23;20150;-79
2023/11/08 00:22:11;;;;;;;0.60;0.60;;;;;;;7.46;100.00;99294.63;6184117;23;20162;-78
2023/11/08 00:24:40;;;;;;;1.40;0.90;;;;;;;7.46;100.00;99294.63;6184398;23;20185;-77
2023/11/08 00:27:14;;;;;;;0.80;0.80;;;;;;;7.46;100.00;99289.28;6184092;23;20612;-77
2023/11/08 00:29:42;;;;;;;0.87;0.87;;;;;;;7.45;100.00;99293.78;6158252;23;20241;-77
2023/11/08 00:32:12;;;;;;;1.53;1.20;;;;;;;7.45;100.00;99295.63;6184518;23;20236;-76
2023/11/08 00:34:42;;;;;;;0.70;0.70;;;;;;;7.51;100.00;99289.47;6157845;23;20174;-77
2023/11/08 00:37:10;;;;;;;1.20;0.80;;;;;;;7.52;100.00;99283.09;6183990;23;20213;-79
2023/11/08 00:39:41;;;;;;;0.60;0.60;;;;;;;7.57;100.00;99283.28;6184239;23;20162;-78
2023/11/08 00:42:12;;;;;;;0.90;0.60;;;;;;;7.58;100.00;99290.28;6183947;23;20166;-78
2023/11/08 00:44:41;;;;;;;0.80;0.60;;;;;;;7.61;100.00;99294.34;6184117;23;20640;-78
2023/11/08 00:47:11;;;;;;;0.67;0.67;;;;;;;7.64;100.00;99294.78;6158115;23;20166;-78
2023/11/08 00:49:45;;;;;;;0.77;0.77;;;;;;;7.72;100.00;99299.06;6184509;23;20170;-78
2023/11/08 00:52:16;;;;;;;0.50;0.50;;;;;;;7.75;100.00;99307.44;6158150;23;20165;-78
2023/11/08 00:54:44;;;;;;;0.50;0.50;;;;;;;7.89;100.00;99306.38;6184581;23;20163;-78
2023/11/08 00:57:15;;;;;;;0.50;0.50;;;;;;;7.94;100.00;99303.91;6158480;23;20214;-78
2023/11/08 00:59:43;;;;;;;0.50;0.50;;;;;;;7.89;100.00;99303.72;6184745;23;20166;-81
2023/11/08 01:02:12;;;;;;;0.60;0.60;;;;;;;7.79;100.00;99300.66;6184025;23;20166;-78
2023/11/08 01:04:39;;;;;;;0.60;0.60;;;;;;;7.74;100.00;99305.00;6184024;23;20241;-77
2023/11/08 01:07:08;;;;;;;0.60;0.60;;;;;;;7.81;100.00;99303.13;6183389;23;20162;-78
2023/11/08 01:09:42;;;;;;;0.53;0.53;;;;;;;7.74;100.00;99300.50;6109640;23;20212;-78
2023/11/08 01:12:11;;;;;;;0.70;0.70;;;;;;;7.73;100.00;99298.88;6184005;23;20642;-78
2023/11/08 01:14:51;;;;;;;0.80;0.80;;;;;;;7.71;100.00;99302.75;6158023;23;20253;-78
2023/11/08 01:17:30;;;;;;;0.60;0.60;;;;;;;7.71;100.00;99303.56;6158251;23;20209;-77
2023/11/08 01:19:58;;;;;;;0.80;0.80;;;;;;;7.76;100.00;99302.94;6157981;23;20249;-76
2023/11/08 01:22:27;;;;;;;0.80;0.80;;;;;;;7.75;100.00;99306.63;6183593;23;20177;-77
2023/11/08 01:24:55;;;;;;;0.80;0.80;;;;;;;7.75;100.00;99302.13;6158082;23;20274;-76
2023/11/08 01:27:27;;;;;;;1.13;1.10;;;;;;;7.85;100.00;99302.50;6183918;23;20624;-82
2023/11/08 01:30:01;;;;;;;0.97;0.73;;;;;;;7.81;100.00;99295.97;6184012;23;20212;-77
2023/11/08 01:32:37;;;;;;;1.10;1.10;;;;;;;7.85;100.00;99294.50;6157404;23;20518;-77
2023/11/08 01:35:05;;;;;;;1.07;1.07;;;;;;;7.81;100.00;99298.63;6184081;23;20245;-77
2023/11/08 01:37:36;;;;;;;1.50;1.40;;;;;;;7.81;100.00;99293.28;6157577;23;20700;-78
2023/11/08 01:40:09;;;;;;;2.80;1.73;;;;;;;7.80;100.00;99301.50;6159287;23;20169;-79
2023/11/08 01:42:42;;;;;;;2.07;1.93;;;;;;;7.92;100.00;99295.31;6158931;23;20166;-77
2023/11/08 01:45:11;;;;;;;2.07;1.80;;;;;;;7.83;100.00;99306.44;6184082;23;20193;-77
2023/11/08 01:47:42;;;;;;;2.00;1.90;;;;;;;7.84;100.00;99297.38;6183827;23;20182;-78
2023/11/08 01:50:15;;;;;;;2.17;2.07;;;;;;;7.90;100.00;99307.22;6157822;23;20182;-78
2023/11/08 01:52:44;;;;;;;2.27;2.17;;;;;;;7.87;100.00;99300.47;6183451;23;20162;-79
2023/11/08 01:55:15;;;;;;;2.40;2.20;;;;;;;7.91;100.00;99295.53;6158243;23;20182;-77
2023/11/08 01:57:44;;;;;;;3.40;2.37;;;;;;;7.97;100.00;99295.50;6183685;23;20186;-81
2023/11/08 02:00:17;;;;;;;2.63;2.43;;;;;;;8.07;100.00;99288.91;6157815;23;20640;-78
2023/11/08 02:02:47;;;;;;;2.80;2.60;;;;;;;8.09;100.00;99289.50;6183430;23;20204;-78
2023/11/08 02:05:16;;;;;;;2.80;2.60;;;;;;;8.00;100.00;99291.59;6183825;23;20206;-78
2023/11/08 02:07:46;;;;;;;3.27;2.97;;;;;;;8.13;100.00;99286.19;6157701;23;20197;-82
2023/11/08 02:10:17;;;;;;;4.73;3.13;;;;;;;8.07;100.00;99296.91;6158660;23;20695;-79
2023/11/08 02:12:45;;;;;;;5.00;2.67;;;;;;;8.05;100.00;99297.13;6157370;23;20205;-79
2023/11/08 02:15:16;;;;;;;3.00;2.80;;;;;;;8.23;100.00;99296.41;6132833;23;20178;-78
2023/11/08 02:17:44;;;;;;;3.00;2.70;;;;;;;8.18;100.00;99307.72;6185377;23;20170;-79
2023/11/08 02:20:11;;;;;;;2.90;2.70;;;;;;;8.15;100.00;99305.50;6185248;23;20245;-78
2023/11/08 02:22:48;;;;;;;2.80;2.60;;;;;;;8.34;100.00;99322.47;6159377;23;20166;-77
2023/11/08 02:25:16;;;;;;;2.90;2.70;;;;;;;8.29;100.00;99314.25;6159252;23;20190;-79
2023/11/08 02:27:48;;;;;;;2.80;2.30;;;;;;;8.24;100.00;99322.91;6159362;23;20154;-80
2023/11/08 02:30:15;;;;;;;2.90;2.30;;;;;;;8.37;100.00;99320.19;6159210;23;20225;-78
2023/11/08 02:32:44;;;;;;;2.73;2.53;;;;;;;8.45;100.00;99319.13;6159845;23;20158;-81
2023/11/08 02:35:12;;;;;;;2.40;2.20;;;;;;;8.32;100.00;99327.19;6185768;23;20189;-79
2023/11/08 02:37:46;;;;;;;2.63;2.43;;;;;;;8.28;100.00;99336.63;6185515;23;20246;-79
2023/11/08 02:40:14;;;;;;;2.60;2.40;;;;;;;8.21;100.00;99336.66;6185504;23;20221;-78
2023/11/08 02:42:48;;;;;;;2.23;2.13;;;;;;;8.25;100.00;99329.88;6159461;23;20609;-79
2023/11/08 02:45:19;;;;;;;2.23;2.03;;;;;;;8.42;100.00;99334.75;6185471;23;20201;-78
2023/11/08 02:47:50;;;;;;;2.27;2.10;;;;;;;8.28;100.00;99340.13;6158721;23;20284;-77
2023/11/08 02:50:25;;;;;;;2.10;2.00;;;;;;;8.41;100.00;99341.94;6185485;23;20955;-78
2023/11/08 02:52:58;;;;;;;2.33;2.13;;;;;;;8.23;100.00;99339.94;6185535;23;20166;-79
2023/11/08 02:55:27;;;;;;;2.43;2.10;;;;;;;8.26;100.00;99349.34;6185478;23;20166;-76
2023/11/08 02:57:58;;;;;;;2.30;2.10;;;;;;;8.47;100.00;99354.44;6185238;23;20229;-79
2023/11/08 03:00:30;;;;;;;2.50;2.30;;;;;;;8.38;100.00;99353.88;6185064;23;20159;-79
2023/11/08 03:03:01;;;;;;;2.27;2.07;;;;;;;8.38;100.00;99361.88;6184861;23;20161;-78
2023/11/08 03:05:44;;;;;;;1.80;1.70;;;;;;;8.52;100.00;99361.81;6158966;23;20182;-77
2023/11/08 03:08:12;;;;;;;1.73;1.63;;;;;;;8.45;100.00;99353.81;6158633;23;20174;-77
2023/11/08 03:10:41;;;;;;;2.00;1.90;;;;;;;8.49;100.00;99364.94;6184746;23;20695;-78
2023/11/08 03:13:14;;;;;;;1.90;1.80;;;;;;;8.46;100.00;99371.50;6184864;23;20158;-78
2023/11/08 03:15:46;;;;;;;1.90;1.80;;;;;;;8.44;100.00;99370.91;6184855;23;20237;-81
2023/11/08 03:18:18;;;;;;;1.60;1.50;;;;;;;8.38;100.00;99369.06;6159099;23;20181;-78
2023/11/08 03:20:47;;;;;;;2.20;2.00;;;;;;;8.30;100.00;99375.47;6158317;23;20162;-78
2023/11/08 03:23:15;;;;;;;2.17;1.97;;;;;;;8.22;100.00;99373.00;6184571;23;20170;-78
2023/11/08 03:25:44;;;;;;;2.13;1.77;;;;;;;8.29;100.00;99375.66;6184679;23;20264;-79
2023/11/08 03:28:13;;;;;;;2.00;1.80;;;;;;;8.25;100.00;99382.44;6158184;23;20521;-78
2023/11/08 03:30:48;;;;;;;2.30;1.90;;;;;;;8.21;100.00;99383.88;6185186;23;20197;-78
2023/11/08 03:33:23;;;;;;;1.77;1.67;;;;;;;8.26;100.00;99384.88;6185067;23;20221;-78
2023/11/08 03:35:57;;;;;;;1.70;1.60;;;;;;;8.14;100.00;99386.56;6184471;23;20181;-78
2023/11/08 03:38:26;;;;;;;1.60;1.50;;;;;;;8.11;100.00;99380.84;6185364;23;20170;-79
2023/11/08 03:40:55;;;;;;;1.50;1.40;;;;;;;8.16;100.00;99394.38;6185010;23;20219;-77
2023/11/08 03:43:22;;;;;;;2.00;1.60;;;;;;;8.04;100.00;99390.69;6184792;23;20166;-78
2023/11/08 03:45:54;;;;;;;2.00;1.40;;;;;;;8.04;100.00;99390.69;6184820;23;20648;-78
2023/11/08 03:48:26;;;;;;;2.07;1.50;;;;;;;8.05;100.00;99408.34;6184671;23;20237;-79
2023/11/08 03:50:55;;;;;;;1.93;1.20;;;;;;;8.00;100.00;99405.47;6134422;23;20569;-78
2023/11/08 03:53:26;;;;;;;1.30;1.20;;;;;;;8.04;100.00;99406.69;6184835;23;20635;-80
2023/11/08 03:55:57;;;;;;;2.10;1.10;;;;;;;7.96;100.00;99413.09;6184545;23;20683;-78
2023/11/08 03:58:25;;;;;;;1.20;1.10;;;;;;;7.89;100.00;99414.94;6184562;23;20171;-81
2023/11/08 04:00:55;;;;;;;1.60;1.10;;;;;;;7.94;100.00;99407.13;6184657;23;20174;-79
2023/11/08 04:03:25;;;;;;;1.30;1.13;;;;;;;7.89;100.00;99423.75;6184327;23;20167;-78
2023/11/08 04:05:54;;;;;;;1.80;1.20;;;;;;;7.93;100.00;99419.63;6184468;23;20232;-78
2023/11/08 04:08:23;;;;;;;1.10;1.00;;;;;;;7.89;100.00;99421.09;6184731;23;20233;-78
2023/11/08 04:10:52;;;;;;;1.60;1.20;;;;;;;8.04;100.00;99422.72;6184086;23;20198;-79
2023/11/08 04:13:23;;;;;;;1.73;1.13;;;;;;;7.94;100.00;99418.63;6184538;23;20620;-80
2023/11/08 04:15:50;;;;;;;1.30;1.20;;;;;;;7.74;100.00;99417.84;6158432;23;20162;-79
2023/11/08 04:18:21;;;;;;;1.20;1.10;;;;;;;7.74;100.00;99427.69;6184086;23;20194;-79
2023/11/08 04:20:51;;;;;;;1.00;0.90;;;;;;;7.66;100.00;99434.03;6159166;23;20226;-79
2023/11/08 04:23:21;;;;;;;1.17;0.93;;;;;;;7.66;100.00;99433.22;6184112;23;20173;-78
2023/11/08 04:25:54;;;;;;;2.70;0.80;;;;;;;7.56;100.00;99427.50;6159680;23;20171;-79
2023/11/08 04:28:24;;;;;;;1.07;0.90;;;;;;;7.59;100.00;99435.88;6158044;23;20170;-79
2023/11/08 04:30:52;;;;;;;2.47;0.80;;;;;;;7.71;100.00;99439.56;6158214;23;20173;-79
2023/11/08 04:33:22;;;;;;;1.10;0.90;;;;;;;7.60;100.00;99428.72;6184255;23;20166;-79
2023/11/08 04:35:54;;;;;;;2.53;0.90;;;;;;;7.48;100.00;99429.31;6184308;23;20623;-81
2023/11/08 04:38:22;;;;;;;1.17;0.90;;;;;;;7.53;100.00;99444.69;6183968;23;20177;-79
2023/11/08 04:40:49;;;;;;;1.63;0.70;;;;;;;7.52;100.00;99437.72;6184310;23;20249;-79
2023/11/08 04:43:19;;;;;;;0.83;0.70;;;;;;;7.41;100.00;99443.69;6184220;23;20167;-81
2023/11/08 04:45:48;;;;;;;2.37;0.70;;;;;;;7.39;100.00;99446.53;6157684;23;20725;-77
2023/11/08 04:48:19;;;;;;;1.20;0.83;;;;;;;7.29;100.00;99432.78;6184338;23;20256;-80
2023/11/08 04:50:47;;;;;;;0.83;0.70;;;;;;;7.27;100.00;99448.16;6182961;23;20166;-79
2023/11/08 04:53:15;;;;;;;0.97;0.70;;;;;;;7.19;100.00;99443.00;6184278;23;20228;-80
2023/11/08 04:55:46;;;;;;;1.60;0.83;;;;;;;7.15;100.00;99451.59;6183958;23;20149;-78
2023/11/08 04:58:14;;;;;;;0.90;0.50;;;;;;;7.09;100.00;99456.72;6184278;23;20185;-80
2023/11/08 05:00:42;;;;;;;0.87;0.80;;;;;;;7.21;100.00;99467.63;6183920;23;20162;-80
2023/11/08 05:03:14;;;;;;;2.57;0.80;;;;;;;7.24;100.00;99472.53;6184262;23;20166;-79
2023/11/08 05:05:41;;;;;;;2.73;0.80;;;;;;;7.43;100.00;99468.25;6157766;23;20178;-79
2023/11/08 05:08:12;;;;;;;3.03;0.80;;;;;;;7.45;100.00;99476.88;6183283;23;20221;-78
2023/11/08 05:10:43;;;;;;;0.60;0.60;;;;;;;7.55;100.00;99471.16;6183698;23;20297;-79
2023/11/08 05:13:15;;;;;;;2.37;0.87;;;;;;;7.49;100.00;99480.78;6184084;23;20221;-79
2023/11/08 05:15:42;;;;;;;0.93;0.70;;;;;;;7.41;100.00;99484.47;6183714;23;20166;-82
2023/11/08 05:18:10;;;;;;;2.77;1.10;;;;;;;7.38;100.00;99481.38;6183736;23;20170;-80
2023/11/08 05:20:45;;;;;;;1.10;0.80;;;;;;;7.38;100.00;99476.88;6183817;23;20233;-80
2023/11/08 05:26:03;;;;;;;1.63;0.80;;;;;;;7.50;100.00;99461.94;6165267;23;20201;-79
2023/11/08 05:28:31;;;;;;;1.90;0.90;;;;;;;7.45;100.00;99477.72;6184173;23;20196;-79
2023/11/08 05:31:02;;;;;;;1.13;1.00;;;;;;;7.44;100.00;99481.41;6158467;23;20166;-77
2023/11/08 05:33:29;;;;;;;1.47;0.77;;;;;;;7.48;100.00;99479.97;6184048;23;20167;-79
2023/11/08 05:35:58;;;;;;;1.30;0.80;;;;;;;7.58;100.00;99484.06;6157977;23;20236;-78
2023/11/08 05:38:28;;;;;;;1.50;0.90;;;;;;;7.46;100.00;99482.03;6183984;23;20174;-82
2023/11/08 05:40:56;;;;;;;2.40;0.90;;;;;;;7.49;100.00;99480.78;6157884;23;20196;-79
2023/11/08 05:43:29;;;;;;;2.00;0.80;;;;;;;7.49;100.00;99484.28;6158007;23;20604;-81
2023/11/08 05:45:57;;;;;;;2.00;0.70;;;;;;;7.64;100.00;99478.75;6182486;23;20155;-79
2023/11/08 05:48:30;;;;;;;0.80;0.80;;;;;;;7.69;100.00;99483.47;6152921;23;20197;-78
2023/11/08 05:51:02;;;;;;;1.50;0.80;;;;;;;7.59;100.00;99488.38;6182057;23;20150;-78
2023/11/08 05:53:31;;;;;;;1.37;0.77;;;;;;;7.70;100.00;99488.59;6186355;23;20147;-79
2023/11/08 05:55:58;;;;;;;2.93;0.83;;;;;;;7.72;100.00;99499.06;6186539;23;20162;-80
2023/11/08 05:58:32;;;;;;;1.20;0.80;;;;;;;7.75;100.00;99501.31;6186235;23;20192;-80
2023/11/08 06:01:04;;;;;;;0.70;0.70;;;;;;;7.70;100.00;99517.13;6186383;23;20161;-78
2023/11/08 06:03:33;;;;;;;1.70;0.60;;;;;;;7.79;100.00;99521.25;6186155;23;20209;-80
2023/11/08 06:06:04;;;;;;;0.80;0.60;;;;;;;7.80;100.00;99510.34;6186383;23;20166;-79
2023/11/08 06:08:36;;;;;;;1.07;0.70;;;;;;;7.91;100.00;99516.91;6160625;23;20147;-79
2023/11/08 06:11:07;;;;;;;2.10;0.70;;;;;;;8.02;100.00;99529.66;6185727;23;20211;-79
2023/11/08 06:13:43;;;;;;;2.70;0.90;;;;;;;7.93;100.00;99529.00;6185867;23;20172;-82
2023/11/08 06:16:15;;;;;;;1.23;0.70;;;;;;;8.02;100.00;99527.00;6186320;23;20174;-78
2023/11/08 06:18:46;;;;;;;1.83;0.70;;;;;;;8.07;100.00;99542.38;6160570;23;20170;-81
2023/11/08 06:21:15;;;;;;;2.00;0.73;;;;;;;8.01;100.00;99529.84;6185959;23;20245;-78
2023/11/08 06:23:43;;;;;;;1.30;0.60;;;;;;;8.22;100.00;99545.63;6186118;23;20173;-80
2023/11/08 06:26:15;;;;;;;2.10;0.90;;;;;;;8.12;100.00;99547.94;6186111;23;20162;-81
2023/11/08 06:28:44;;;;;;;2.00;0.80;;;;;;;8.09;100.00;99546.47;6185775;23;20221;-80
2023/11/08 06:31:15;;;;;;;0.70;0.70;;;;;;;8.17;100.00;99546.25;6186217;23;20159;-78
2023/11/08 06:33:43;;;;;;;2.63;0.73;;;;;;;8.02;100.00;99543.00;6160103;23;20170;-79
2023/11/08 06:36:13;;;;;;;1.73;0.90;;;;;;;8.00;100.00;99544.22;6186002;23;20171;-79
2023/11/08 06:38:41;;;;;;;1.77;0.80;;;;;;;7.95;100.00;99548.31;6185967;23;20213;-80
2023/11/08 06:41:11;;;;;;;1.47;0.83;;;;;;;7.92;100.00;99553.25;6185813;23;20177;-79
2023/11/08 06:43:43;;;;;;;1.13;0.50;;;;;;;8.03;100.00;99546.47;6185565;23;20238;-79
2023/11/08 06:46:18;;;;;;;1.17;0.70;;;;;;;7.98;100.00;99555.09;6185352;23;20185;-79
2023/11/08 06:48:47;;;;;;;1.40;0.87;;;;;;;7.98;100.00;99555.91;6184900;23;20194;-79
2023/11/08 06:51:18;;;;;;;1.47;0.67;;;;;;;8.09;100.00;99559.00;6185438;23;20163;-79
2023/11/08 06:53:50;;;;;;;1.23;0.60;;;;;;;8.05;100.00;99566.59;6185576;23;20174;-79
2023/11/08 06:56:18;;;;;;;1.27;0.67;;;;;;;7.99;100.00;99564.72;6185667;23;20157;-79
2023/11/08 06:58:57;;;;;;;1.57;0.60;;;;;;;8.07;100.00;99569.06;6185459;23;20647;-79
2023/11/08 07:01:32;;;;;;;1.30;0.70;;;;;;;8.06;100.00;99576.25;6160317;23;20248;-79
2023/11/08 07:04:05;;;;;;;1.50;0.70;;;;;;;8.07;100.00;99572.53;6185271;23;20150;-81
2023/11/08 07:06:36;;;;;;;0.90;0.60;;;;;;;8.15;100.00;99579.53;6185524;23;20181;-80
2023/11/08 07:09:06;;;;;;;1.20;0.63;;;;;;;8.14;100.00;99576.03;6184396;23;20177;-80
2023/11/08 07:11:35;;;;;;;1.10;0.67;;;;;;;8.24;100.00;99583.63;6185504;23;20211;-79
2023/11/08 07:14:04;;;;;;;0.93;0.50;;;;;;;8.27;100.00;99585.88;6158778;23;20185;-79
2023/11/08 07:16:32;;;;;;;2.53;0.70;;;;;;;8.44;100.00;99584.50;6159704;23;20172;-80
2023/11/08 07:19:00;;;;;;;1.33;0.50;;;;;;;8.52;100.00;99589.59;6185256;23;20502;-78
2023/11/08 07:21:31;;;;;;;2.13;0.53;;;;;;;8.58;100.00;99588.78;6185399;23;20162;-79
2023/11/08 07:23:58;;;;;;;1.13;0.60;;;;;;;8.75;100.00;99591.81;6185406;23;20246;-80
2023/11/08 07:26:26;;;;;;;0.77;0.60;;;;;;;8.69;100.00;99589.97;6185547;23;20174;-80
2023/11/08 07:28:58;;;;;;;1.30;0.60;;;;;;;8.82;100.00;99597.97;6184353;23;20631;-80
2023/11/08 07:31:26;;;;;;;1.37;0.50;;;;;;;8.80;100.00;99592.03;6158856;23;20174;-79
2023/11/08 07:33:58;;;;;;;2.33;0.50;;;;;;;8.77;100.00;99592.44;6183763;23;20151;-82
2023/11/08 07:36:25;;;;;;;1.90;0.60;;;;;;;8.80;100.00;99592.03;6184733;23;20613;-79
2023/11/08 07:38:54;;;;;;;2.47;0.90;;;;;;;8.79;100.00;99593.06;6184449;23;20166;-79
2023/11/08 07:41:23;;;;;;;0.87;0.40;;;;;;;8.84;100.00;99596.75;6158842;23;20177;-79
2023/11/08 07:43:52;;;;;;;2.20;0.77;;;;;;;8.84;100.00;99601.25;6184600;23;20204;-79
2023/11/08 07:46:26;;;;;;;2.57;0.90;;;;;;;8.97;100.00;99598.56;6184531;23;20174;-80
2023/11/08 07:48:57;;;;;;;2.53;0.60;;;;;;;8.94;100.00;99598.97;6157999;23;20536;-80
2023/11/08 07:51:28;;;;;;;0.50;0.50;;;;;;;8.95;100.00;99597.97;6184491;23;20154;-80
2023/11/08 07:54:00;;;;;;;1.03;0.50;;;;;;;9.05;100.00;99590.28;6157993;23;20171;-80
2023/11/08 07:56:28;;;;;;;3.00;0.53;;;;;;;9.09;100.00;99599.56;6158650;23;20679;-80
2023/11/08 07:58:56;;;;;;;1.30;0.60;;;;;;;9.18;100.00;99597.47;6133515;23;20354;-82
2023/11/08 08:01:26;;;;;;;0.57;0.40;;;;;;;9.13;100.00;99598.09;6184059;23;20253;-79
2023/11/08 08:03:56;;;;;;;1.53;0.53;;;;;;;9.18;100.00;99602.81;6183998;23;20212;-80
2023/11/08 08:06:30;;;;;;;1.37;0.57;;;;;;;9.11;100.00;99597.47;6184361;23;20166;-79
2023/11/08 08:09:14;;;;;;;1.33;0.70;;;;;;;9.19;100.00;99593.78;6158970;23;20161;-79
2023/11/08 08:11:46;;;;;;;1.37;0.40;;;;;;;9.29;100.00;99592.28;6152828;23;20203;-79
2023/11/08 08:14:15;;;;;;;0.90;0.50;;;;;;;9.40;100.00;99596.13;6128053;23;20174;-80
2023/11/08 08:16:43;;;;;;;2.20;0.63;;;;;;;9.41;100.00;99603.13;6154658;23;20167;-81
2023/11/08 08:19:16;;;;;;;1.07;0.60;;;;;;;9.32;100.00;99598.25;6154062;23;20167;-78
2023/11/08 08:21:51;;;;;;;2.27;0.60;;;;;;;9.33;100.00;99599.88;6153030;23;20190;-80
2023/11/08 08:24:20;;;;;;;1.83;0.90;;;;;;;9.35;100.00;99595.13;6152599;23;20171;-79
2023/11/08 08:26:50;;;;;;;1.93;0.50;;;;;;;9.46;100.00;99591.81;6153338;23;20621;-79
2023/11/08 08:29:22;;;;;;;1.20;0.60;;;;;;;9.45;100.00;99588.31;6152505;23;20181;-80
2023/11/08 08:31:50;;;;;;;1.40;0.50;;;;;;;9.44;100.00;99585.81;6153226;23;20609;-79
2023/11/08 08:34:21;;;;;;;1.57;0.67;;;;;;;9.42;100.00;99586.06;6154268;23;20198;-79
2023/11/08 08:36:57;;;;;;;2.13;0.57;;;;;;;9.39;100.00;99575.78;6154515;23;20162;-79
2023/11/08 08:39:27;;;;;;;1.83;0.67;;;;;;;9.41;100.00;99573.72;6152701;23;20258;-79
2023/11/08 08:42:01;;;;;;;2.57;0.60;;;;;;;9.50;100.00;99572.44;6154584;23;20629;-79
2023/11/08 08:44:30;;;;;;;1.53;0.70;;;;;;;9.58;100.00;99580.19;6154000;23;20171;-80
2023/11/08 08:47:02;;;;;;;2.10;0.70;;;;;;;9.56;100.00;99576.13;6153021;23;20198;-78
2023/11/08 08:49:30;;;;;;;3.90;0.70;;;;;;;9.60;100.00;99578.16;6152608;23;20593;-79
2023/11/08 08:52:11;;;;;;;1.30;0.47;;;;;;;9.57;100.00;99577.72;6154566;23;20625;-79
2023/11/08 08:54:40;;;;;;;2.73;0.60;;;;;;;9.59;100.00;99579.19;6154443;23;20319;-79
2023/11/08 08:57:07;;;;;;;1.40;0.50;;;;;;;9.73;100.00;99580.75;6154641;23;20186;-80
2023/11/08 08:59:36;;;;;;;1.83;0.93;;;;;;;9.86;100.00;99587.03;6128499;23;20202;-78
2023/11/08 09:02:08;;;;;;;1.77;0.60;;;;;;;9.91;100.00;99589.88;6154916;23;20151;-80
2023/11/08 09:04:35;;;;;;;2.13;0.50;;;;;;;9.94;100.00;99598.28;6153976;23;20213;-79
2023/11/08 09:07:04;;;;;;;1.40;0.40;;;;;;;9.98;100.00;99588.81;6153045;23;20199;-79
2023/11/08 09:09:32;;;;;;;2.47;0.60;;;;;;;10.01;100.00;99596.41;6153039;23;20171;-80
2023/11/08 09:11:59;;;;;;;1.10;0.50;;;;;;;9.97;100.00;99591.69;6184425;23;20147;-79
2023/11/08 09:14:39;;;;;;;2.20;0.50;;;;;;;10.04;100.00;99597.81;6085348;23;20166;-81
2023/11/08 09:17:09;;;;;;;2.37;0.60;;;;;;;10.02;100.00;99605.25;6158152;23;20170;-80
2023/11/08 09:19:36;;;;;;;2.37;0.70;;;;;;;10.07;100.00;99606.25;6182056;23;20170;-79
2023/11/08 09:22:07;;;;;;;2.03;0.60;;;;;;;10.15;100.00;99603.34;6157136;23;20166;-79
2023/11/08 09:24:36;;;;;;;1.17;0.50;;;;;;;10.14;100.00;99612.38;6157949;23;20240;-79
2023/11/08 09:27:11;;;;;;;6.80;0.60;;;;;;;10.10;100.00;99599.63;6184020;23;20185;-80
2023/11/08 09:29:45;;;;;;;1.07;0.50;;;;;;;10.06;100.00;99603.78;6184207;23;20245;-79
2023/11/08 09:32:17;;;;;;;2.37;0.50;;;;;;;10.08;100.00;99602.53;6156447;23;20174;-79
2023/11/08 09:34:49;;;;;;;0.97;0.70;;;;;;;10.13;100.00;99586.63;6183485;23;20197;-79
2023/11/08 09:37:17;;;;;;;1.23;0.50;;;;;;;10.14;100.00;99593.63;6183950;23;20228;-79
2023/11/08 09:39:49;;;;;;;1.60;0.50;;;;;;;10.29;100.00;99590.66;6183062;23;20188;-80
2023/11/08 09:42:21;;;;;;;2.33;0.53;;;;;;;10.31;100.00;99585.91;6183589;23;20166;-80
2023/11/08 09:44:49;;;;;;;1.70;0.50;;;;;;;10.36;100.00;99590.63;6183555;23;20230;-80
2023/11/08 09:47:19;;;;;;;0.83;0.50;;;;;;;10.45;100.00;99584.75;6183246;23;20189;-80
2023/11/08 09:49:51;;;;;;;1.00;0.40;;;;;;;10.50;100.00;99582.22;6183843;23;20635;-79
2023/11/08 09:52:27;;;;;;;1.07;0.50;;;;;;;10.72;100.00;99571.13;6183625;23;20154;-79
2023/11/08 09:55:03;;;;;;;1.03;0.43;;;;;;;10.86;100.00;99572.63;6157524;23;20265;-81
2023/11/08 09:57:36;;;;;;;1.67;0.63;;;;;;;11.01;100.00;99579.22;6158778;23;20177;-79
2023/11/08 10:00:06;;;;;;;1.97;0.50;;;;;;;11.09;100.00;99566.59;6158525;23;20166;-79
2023/11/08 10:02:50;;;;;;;1.23;0.50;;;;;;;11.23;100.00;99568.88;6159203;23;20225;-79
2023/11/08 10:05:21;;;;;;;1.30;0.50;;;;;;;11.34;100.00;99557.38;6159022;23;20186;-82
2023/11/08 10:07:53;;;;;;;1.33;0.60;;;;;;;11.54;100.00;99567.03;6184157;23;20186;-79
2023/11/08 10:10:23;;;;;;;3.20;0.70;;;;;;;11.68;100.00;99561.25;6183551;23;20190;-80
2023/11/08 10:13:06;;;;;;;1.73;0.50;;;;;;;11.89;100.00;99562.66;6183649;23;20245;-80
2023/11/08 10:15:34;;;;;;;0.83;0.40;;;;;;;12.09;100.00;99576.56;6183591;23;20171;-79
2023/11/08 10:18:04;;;;;;;1.27;0.40;;;;;;;12.10;100.00;99566.66;6183943;23;20171;-80
2023/11/08 10:20:54;;;;;;;2.20;0.40;;;;;;;12.23;100.00;99558.38;6157735;23;20237;-82
2023/11/08 10:23:30;;;;;;;2.17;0.43;;;;;;;12.40;100.00;99566.59;6157841;23;20177;-81
2023/11/08 10:26:15;;;;;;;2.37;0.40;;;;;;;12.46;99.29;99558.38;6183851;23;20190;-79
2023/11/08 10:29:00;;;;;;;2.27;0.70;;;;;;;12.49;97.43;99557.94;6133434;23;20186;-80
2023/11/08 10:31:35;;;;;;;0.70;0.50;;;;;;;12.52;96.69;99564.69;6183937;23;20617;-79
2023/11/08 10:34:16;;;;;;;1.23;0.50;;;;;;;12.52;96.30;99557.47;6159282;23;20182;-80
2023/11/08 10:36:45;;;;;;;0.90;0.47;;;;;;;12.62;95.89;99560.38;6183809;23;20231;-82
2023/11/08 10:39:17;;;;;;;0.93;0.40;;;;;;;12.67;90.81;99573.94;6185278;23;20178;-79
2023/11/08 10:41:49;;;;;;;0.70;0.33;;;;;;;12.82;92.39;99554.66;6185721;23;20236;-78
2023/11/08 10:44:22;;;;;;;1.50;0.50;;;;;;;12.78;92.03;99556.19;6185671;23;20211;-78
2023/11/08 10:46:59;;;;;;;0.90;0.33;;;;;;;12.75;89.55;99546.69;6136804;23;20168;-79
2023/11/08 10:49:31;;;;;;;2.07;0.50;;;;;;;12.76;91.59;99556.41;6185259;23;20187;-81
2023/11/08 10:52:09;;;;;;;1.97;0.50;;;;;;;12.88;88.28;99548.31;6160730;23;20166;-79
2023/11/08 10:54:39;;;;;;;0.83;0.37;;;;;;;12.66;88.89;99545.44;6185431;23;20166;-80
2023/11/08 10:57:08;;;;;;;1.60;0.40;;;;;;;12.69;90.58;99547.63;6159588;23;20170;-79
2023/11/08 10:59:41;;;;;;;1.47;0.50;;;;;;;12.67;90.72;99548.94;6159692;23;20168;-78
2023/11/08 11:02:28;;;;;;;1.20;0.47;;;;;;;12.66;91.83;99542.72;6160901;23;20644;-80
2023/11/08 11:05:04;;;;;;;1.23;0.60;;;;;;;12.56;91.32;99545.19;6185206;23;20246;-79
2023/11/08 11:07:35;;;;;;;2.83;0.60;;;;;;;12.73;92.30;99546.13;6159735;23;20181;-79
2023/11/08 11:10:07;;;;;;;0.93;0.40;;;;;;;12.68;90.54;99535.28;6153926;23;20234;-78
2023/11/08 11:13:09;;;;;;;1.60;0.50;;;;;;;12.75;92.21;99549.38;6154455;23;20568;-81
2023/11/08 11:15:53;;;;;;;1.83;0.50;;;;;;;12.82;92.51;99535.00;6155940;23;20172;-80
2023/11/08 11:19:00;;;;;;;1.67;0.60;;;;;;;12.95;92.52;99540.13;6154200;23;20168;-78
2023/11/08 11:21:53;;;;;;;2.20;0.50;;;;;;;13.05;93.54;99537.66;6143132;23;20177;-80
2023/11/08 11:24:33;;;;;;;1.17;0.50;;;;;;;13.23;92.54;99553.66;6154143;23;20177;-78
2023/11/08 11:27:05;;;;;;;1.23;0.40;;;;;;;13.37;92.98;99538.88;6154371;23;20679;-78
2023/11/08 11:29:34;;;;;;;1.23;0.50;;;;;;;13.31;88.81;99552.44;6154098;23;20185;-81
2023/11/08 11:32:37;;;;;;;1.83;0.63;;;;;;;13.38;88.86;99548.59;6154630;23;20184;-80
2023/11/08 11:35:10;;;;;;;0.93;0.40;;;;;;;13.30;87.99;99548.94;6155340;23;20175;-79
2023/11/08 11:37:38;;;;;;;0.90;0.43;;;;;;;13.25;89.06;99542.66;6155371;23;20204;-78
2023/11/08 11:40:08;;;;;;;1.57;0.60;;;;;;;13.29;88.27;99550.03;6155289;23;20256;-79
2023/11/08 11:42:36;;;;;;;1.43;0.63;;;;;;;13.24;89.43;99549.91;6155202;23;20165;-79
2023/11/08 11:45:05;;;;;;;2.33;0.60;;;;;;;13.37;91.28;99554.19;6155278;23;20168;-78
2023/11/08 11:47:33;;;;;;;2.00;0.50;;;;;;;13.47;89.89;99559.78;6153380;23;20604;-79
2023/11/08 11:50:04;;;;;;;1.57;0.53;;;;;;;13.53;92.63;99553.44;6154487;23;20178;-78
2023/11/08 11:52:37;;;;;;;1.57;0.60;;;;;;;13.52;90.47;99563.41;6153983;23;20276;-79
2023/11/08 11:55:08;;;;;;;3.23;0.60;;;;;;;13.52;88.66;99555.31;6155170;23;20168;-78